Time;durP1;ratioP1;P1;durP2;ratioP2;P2;SDS_P1;SDS_P2;PMS_P1;PMS_P2;Temp;Humidity;BMP_temperature;BMP_pressure;BME280_temperature;BME280_humidity;BME280_pressure;Samples;Min_cycle;Max_cycle;Signal;HPM_P1;HPM_P2
2023/10/15 00:01:08;;;;;;;6.10;3.63;;;6.80;99.90;;;;;;5096218;28;20051;-52
2023/10/15 00:03:35;;;;;;;8.15;4.00;;;6.80;99.90;;;;;;5095170;28;20139;-54
2023/10/15 00:06:03;;;;;;;8.23;4.00;;;6.80;99.90;;;;;;5096224;28;20040;-52
2023/10/15 00:08:29;;;;;;;5.43;3.47;;;6.80;99.90;;;;;;5096089;28;20048;-51
2023/10/15 00:10:58;;;;;;;9.52;4.18;;;6.70;99.90;;;;;;5095972;28;20218;-50
2023/10/15 00:13:25;;;;;;;7.47;3.33;;;6.70;99.90;;;;;;5095964;28;20160;-49
2023/10/15 00:15:56;;;;;;;9.20;3.95;;;6.70;99.90;;;;;;5094520;28;20044;-50
2023/10/15 00:18:23;;;;;;;9.70;3.47;;;6.60;99.90;;;;;;5096038;28;20036;-54
2023/10/15 00:20:49;;;;;;;8.13;3.65;;;6.60;99.90;;;;;;5095977;28;20039;-50
2023/10/15 00:23:16;;;;;;;10.48;4.00;;;6.60;99.90;;;;;;5096239;28;20044;-51
2023/10/15 00:25:47;;;;;;;9.40;3.67;;;6.60;99.90;;;;;;5096479;28;20425;-52
2023/10/15 00:28:15;;;;;;;9.57;3.65;;;6.50;99.90;;;;;;5096203;28;20126;-52
2023/10/15 00:30:44;;;;;;;5.93;3.28;;;6.60;99.90;;;;;;5094602;28;20035;-52
2023/10/15 00:33:18;;;;;;;9.23;4.63;;;6.50;99.90;;;;;;5095899;28;20063;-48
2023/10/15 00:35:45;;;;;;;7.70;3.38;;;6.50;99.90;;;;;;5095994;28;20040;-52
2023/10/15 00:38:16;;;;;;;7.35;3.60;;;6.50;99.90;;;;;;5095735;28;20060;-49
2023/10/15 00:40:45;;;;;;;10.43;3.75;;;6.50;99.90;;;;;;5093982;28;20087;-51
2023/10/15 00:43:14;;;;;;;9.90;3.08;;;6.50;99.90;;;;;;5095694;28;20036;-53
2023/10/15 00:45:45;;;;;;;8.68;3.47;;;6.40;99.90;;;;;;5095405;28;20047;-51
2023/10/15 00:48:13;;;;;;;9.50;3.60;;;6.40;99.90;;;;;;5095695;28;20054;-55
2023/10/15 00:50:41;;;;;;;8.90;3.33;;;6.40;99.90;;;;;;5095340;28;20052;-53
2023/10/15 00:53:21;;;;;;;6.40;3.15;;;6.50;99.90;;;;;;5095737;28;20400;-50
2023/10/15 00:55:48;;;;;;;8.18;2.78;;;6.50;99.90;;;;;;5095498;28;20052;-52
2023/10/15 00:58:21;;;;;;;5.32;3.00;;;6.50;99.90;;;;;;5095277;28;20043;-49
2023/10/15 01:00:52;;;;;;;9.82;2.78;;;6.50;99.90;;;;;;5093781;28;20561;-50
2023/10/15 01:03:25;;;;;;;7.55;2.97;;;6.50;99.90;;;;;;5093870;28;20043;-53
2023/10/15 01:05:59;;;;;;;9.18;2.65;;;6.40;99.90;;;;;;5093609;28;20048;-52
2023/10/15 01:08:34;;;;;;;10.50;2.70;;;6.50;99.90;;;;;;5095006;28;20044;-54
2023/10/15 01:11:01;;;;;;;7.00;2.30;;;6.40;99.90;;;;;;5093937;28;20411;-57
2023/10/15 01:13:30;;;;;;;8.95;3.15;;;6.40;99.90;;;;;;5094770;28;20159;-54
2023/10/15 01:16:03;;;;;;;12.50;2.95;;;6.40;99.90;;;;;;5095009;28;20479;-53
2023/10/15 01:18:31;;;;;;;9.02;2.75;;;6.40;99.90;;;;;;5093680;28;20128;-49
2023/10/15 01:21:01;;;;;;;5.97;2.40;;;6.40;99.90;;;;;;5093604;28;20133;-51
2023/10/15 01:26:13;;;;;;;5.82;2.55;;;6.30;99.90;;;;;;5095277;28;20568;-51
2023/10/15 01:28:42;;;;;;;8.93;2.35;;;6.30;99.90;;;;;;5093247;28;20048;-52
2023/10/15 01:31:14;;;;;;;5.43;2.58;;;6.30;99.90;;;;;;5094425;28;20074;-50
2023/10/15 01:33:49;;;;;;;4.75;2.40;;;6.30;99.90;;;;;;5093260;28;20070;-51
2023/10/15 01:36:29;;;;;;;6.63;2.40;;;6.30;99.90;;;;;;5095226;28;20376;-49
2023/10/15 01:38:58;;;;;;;4.68;2.17;;;6.20;99.90;;;;;;5093205;28;20131;-52
2023/10/15 01:41:28;;;;;;;8.35;2.53;;;6.20;99.90;;;;;;5094701;28;20054;-58
2023/10/15 01:43:58;;;;;;;8.60;2.85;;;6.20;99.90;;;;;;5094204;28;20089;-52
2023/10/15 01:49:19;;;;;;;9.75;2.72;;;6.10;99.90;;;;;;5094708;28;20062;-50
2023/10/15 01:51:45;;;;;;;6.45;2.58;;;6.10;99.90;;;;;;5093197;28;20089;-52
2023/10/15 01:54:12;;;;;;;7.75;2.60;;;6.10;99.90;;;;;;5094366;28;20040;-50
2023/10/15 01:56:39;;;;;;;6.78;2.30;;;6.00;99.90;;;;;;5094223;28;20518;-52
2023/10/15 01:59:09;;;;;;;6.20;2.40;;;6.00;99.90;;;;;;5092949;28;20379;-52
2023/10/15 02:01:49;;;;;;;4.97;2.65;;;6.00;99.90;;;;;;5093093;28;20475;-48
2023/10/15 02:04:26;;;;;;;6.40;2.40;;;6.00;99.90;;;;;;5093159;28;20043;-52
2023/10/15 02:06:55;;;;;;;5.07;2.60;;;5.90;99.90;;;;;;5094077;28;20040;-48
2023/10/15 02:09:22;;;;;;;5.97;2.60;;;5.90;99.90;;;;;;5094403;28;20051;-49
2023/10/15 02:11:54;;;;;;;7.82;2.63;;;5.90;99.90;;;;;;5092480;28;20117;-51
2023/10/15 02:14:27;;;;;;;5.18;2.35;;;5.90;99.90;;;;;;5094258;28;20131;-49
2023/10/15 02:16:54;;;;;;;8.35;2.65;;;5.90;99.90;;;;;;5092303;28;20180;-46
2023/10/15 02:19:40;;;;;;;7.63;2.60;;;5.90;99.90;;;;;;5092359;28;20050;-48
2023/10/15 02:22:12;;;;;;;7.60;2.80;;;5.80;99.90;;;;;;5092364;28;20040;-53
2023/10/15 02:24:38;;;;;;;6.32;2.78;;;5.80;99.90;;;;;;5092158;28;20139;-51
2023/10/15 02:27:06;;;;;;;5.20;2.30;;;5.80;99.90;;;;;;5091911;28;20036;-54
2023/10/15 02:32:13;;;;;;;5.07;2.03;;;5.80;99.90;;;;;;5093401;28;20491;-52
2023/10/15 02:34:40;;;;;;;7.72;2.38;;;5.80;99.90;;;;;;5093966;28;20054;-49
2023/10/15 02:37:10;;;;;;;4.80;2.17;;;5.80;99.90;;;;;;5093555;28;20042;-54
2023/10/15 02:39:43;;;;;;;5.10;2.58;;;5.70;99.90;;;;;;5091820;28;20040;-51
2023/10/15 02:42:12;;;;;;;4.63;2.42;;;5.70;99.90;;;;;;5093455;28;20129;-53
2023/10/15 02:44:38;;;;;;;4.03;2.30;;;5.70;99.90;;;;;;5075573;28;20040;-55
2023/10/15 02:47:28;;;;;;;6.43;2.40;;;5.70;99.90;;;;;;5093654;28;20071;-51
2023/10/15 02:50:03;;;;;;;4.95;2.10;;;5.60;99.90;;;;;;5093518;28;20121;-53
2023/10/15 02:52:54;;;;;;;6.10;2.47;;;5.60;99.90;;;;;;5093591;28;20132;-55
2023/10/15 02:55:26;;;;;;;6.95;2.40;;;5.60;99.90;;;;;;5091555;28;20054;-52
2023/10/15 02:58:00;;;;;;;9.25;2.60;;;5.60;99.90;;;;;;5093499;28;20078;-51
2023/10/15 03:02:54;;;;;;;4.28;2.28;;;5.50;99.90;;;;;;5091374;28;20055;-46
2023/10/15 03:05:25;;;;;;;7.57;2.40;;;5.50;99.90;;;;;;5091694;28;20445;-50
2023/10/15 03:07:52;;;;;;;8.35;3.10;;;5.60;99.90;;;;;;5093188;28;20101;-54
2023/10/15 03:10:22;;;;;;;7.18;2.22;;;5.50;99.90;;;;;;5092065;28;20044;-50
2023/10/15 03:12:49;;;;;;;5.88;2.15;;;5.50;99.90;;;;;;5093121;28;20472;-47
2023/10/15 03:15:17;;;;;;;5.90;2.25;;;5.50;99.90;;;;;;5092160;28;20044;-53
2023/10/15 03:17:44;;;;;;;2.78;2.17;;;5.50;99.90;;;;;;5092672;28;20101;-50
2023/10/15 03:20:39;;;;;;;6.05;2.20;;;5.40;99.90;;;;;;5091551;28;20086;-50
2023/10/15 03:23:01;;;;;;;5.88;2.00;;;5.40;99.90;;;;;;5091907;28;20046;-51
2023/10/15 03:25:33;;;;;;;6.68;2.50;;;5.40;99.90;;;;;;5093188;28;20249;-51
2023/10/15 03:28:01;;;;;;;4.75;1.98;;;5.30;99.90;;;;;;5092710;28;20052;-49
2023/10/15 03:30:33;;;;;;;4.88;2.00;;;5.30;99.90;;;;;;5092733;28;20399;-50
2023/10/15 03:33:00;;;;;;;5.93;2.22;;;5.30;99.90;;;;;;5093071;28;20097;-48
2023/10/15 03:35:33;;;;;;;5.82;2.08;;;5.30;99.90;;;;;;5093339;28;20059;-53
2023/10/15 03:38:13;;;;;;;4.45;1.90;;;5.30;99.90;;;;;;5092622;28;20050;-56
2023/10/15 03:40:46;;;;;;;5.80;2.17;;;5.30;99.90;;;;;;5092612;28;20086;-55
2023/10/15 03:43:20;;;;;;;6.78;1.98;;;5.30;99.90;;;;;;5091401;28;20036;-56
2023/10/15 03:45:50;;;;;;;5.07;2.10;;;5.30;99.90;;;;;;5093068;28;20127;-52
2023/10/15 03:48:18;;;;;;;6.45;2.00;;;5.30;99.90;;;;;;5091556;28;20158;-53
2023/10/15 03:50:53;;;;;;;4.13;1.85;;;5.30;99.90;;;;;;5092526;28;20044;-53
2023/10/15 03:53:21;;;;;;;4.75;1.73;;;5.30;99.90;;;;;;5092513;28;20398;-54
2023/10/15 03:55:50;;;;;;;4.75;2.05;;;5.30;99.90;;;;;;5092662;28;20040;-53
2023/10/15 03:58:18;;;;;;;5.88;1.88;;;5.30;99.90;;;;;;5092821;28;20040;-53
2023/10/15 04:00:48;;;;;;;3.67;1.95;;;5.20;99.90;;;;;;5092598;28;20082;-53
2023/10/15 04:03:28;;;;;;;5.55;1.73;;;5.30;99.90;;;;;;5092528;28;20459;-57
2023/10/15 04:06:05;;;;;;;7.60;2.22;;;5.20;99.90;;;;;;5092740;28;20047;-53
2023/10/15 04:08:32;;;;;;;4.45;1.77;;;5.20;99.90;;;;;;5092695;28;20060;-49
2023/10/15 04:10:59;;;;;;;5.13;1.92;;;5.20;99.90;;;;;;5093093;28;20159;-54
2023/10/15 04:13:26;;;;;;;5.43;2.05;;;5.10;99.90;;;;;;5090959;28;20059;-53
2023/10/15 04:15:56;;;;;;;7.78;2.20;;;5.20;99.90;;;;;;5095141;28;20036;-50
2023/10/15 04:18:23;;;;;;;4.15;1.63;;;5.10;99.90;;;;;;5095864;28;20036;-51
2023/10/15 04:20:50;;;;;;;5.53;1.92;;;5.10;99.90;;;;;;5095850;28;20040;-52
2023/10/15 04:23:34;;;;;;;5.68;1.70;;;5.00;99.90;;;;;;5096174;28;20032;-54
2023/10/15 04:26:07;;;;;;;5.38;1.83;;;5.00;99.90;;;;;;5096201;28;20075;-54
2023/10/15 04:28:34;;;;;;;4.38;2.08;;;5.00;99.90;;;;;;5095863;28;20052;-52
2023/10/15 04:31:01;;;;;;;4.20;1.80;;;4.90;99.90;;;;;;5095984;28;20036;-51
2023/10/15 04:33:30;;;;;;;4.82;2.00;;;4.90;99.90;;;;;;5095708;28;20501;-48
2023/10/15 04:35:57;;;;;;;4.72;1.73;;;4.80;99.90;;;;;;5095798;28;20458;-50
2023/10/15 04:38:30;;;;;;;4.10;1.90;;;4.80;99.90;;;;;;5094335;28;20048;-48
2023/10/15 04:43:28;;;;;;;4.38;2.10;;;4.80;99.90;;;;;;5095583;28;20086;-51
2023/10/15 04:45:55;;;;;;;3.63;1.90;;;4.80;99.90;;;;;;5095334;28;20094;-51
2023/10/15 04:48:32;;;;;;;5.18;2.05;;;4.70;99.90;;;;;;5095508;28;20097;-50
2023/10/15 04:51:04;;;;;;;6.68;2.40;;;4.70;99.90;;;;;;5095278;28;20130;-51
2023/10/15 04:53:32;;;;;;;4.30;1.90;;;4.70;99.90;;;;;;5095411;28;20048;-52
2023/10/15 04:56:00;;;;;;;4.43;2.40;;;4.70;99.90;;;;;;5095469;28;20075;-51
2023/10/15 04:58:28;;;;;;;6.80;2.40;;;4.70;99.90;;;;;;5095258;28;20483;-52
2023/10/15 05:00:54;;;;;;;4.07;1.77;;;4.60;99.90;;;;;;5095542;28;20060;-53
2023/10/15 05:03:21;;;;;;;3.65;1.90;;;4.60;99.90;;;;;;5095615;28;20036;-49
2023/10/15 05:05:48;;;;;;;3.80;1.80;;;4.60;99.90;;;;;;5094917;28;20036;-54
2023/10/15 05:08:17;;;;;;;5.65;2.10;;;4.50;99.90;;;;;;5094737;28;20079;-52
2023/10/15 05:10:50;;;;;;;4.97;2.08;;;4.50;99.90;;;;;;5095319;28;20036;-52
2023/10/15 05:13:18;;;;;;;6.53;2.45;;;4.50;99.90;;;;;;5095101;28;20097;-56
2023/10/15 05:15:45;;;;;;;3.38;1.83;;;4.50;99.90;;;;;;5095543;28;20086;-54
2023/10/15 05:18:12;;;;;;;4.78;1.85;;;4.40;99.90;;;;;;5094896;28;20391;-52
2023/10/15 05:20:38;;;;;;;4.43;2.30;;;4.50;99.90;;;;;;5094999;28;20040;-56
2023/10/15 05:23:05;;;;;;;3.85;1.90;;;4.40;99.90;;;;;;5094963;28;20032;-57
2023/10/15 05:25:32;;;;;;;4.72;1.90;;;4.40;99.90;;;;;;5095422;28;20036;-54
2023/10/15 05:27:59;;;;;;;3.42;1.83;;;4.40;99.90;;;;;;5094990;28;20044;-51
2023/10/15 05:30:26;;;;;;;9.10;1.98;;;4.40;99.90;;;;;;5095220;28;20040;-51
2023/10/15 05:32:53;;;;;;;3.72;1.48;;;4.40;99.90;;;;;;5095274;28;20048;-54
2023/10/15 05:35:20;;;;;;;3.85;1.90;;;4.30;99.90;;;;;;5094409;28;20077;-55
2023/10/15 05:37:47;;;;;;;4.00;1.92;;;4.30;99.90;;;;;;5094740;28;20044;-51
2023/10/15 05:40:15;;;;;;;4.20;2.00;;;4.30;99.90;;;;;;5094886;28;20036;-50
2023/10/15 05:42:42;;;;;;;3.88;2.08;;;4.20;99.90;;;;;;5094545;28;20068;-52
2023/10/15 05:45:09;;;;;;;3.60;2.00;;;4.20;99.90;;;;;;5094443;28;20055;-55
2023/10/15 05:47:36;;;;;;;5.00;2.67;;;4.10;99.90;;;;;;5094283;28;20043;-49
2023/10/15 05:50:04;;;;;;;3.40;2.15;;;4.10;99.90;;;;;;5094576;28;20110;-52
2023/10/15 05:52:31;;;;;;;6.05;2.22;;;4.10;99.90;;;;;;5094423;28;20063;-55
2023/10/15 05:55:00;;;;;;;5.80;2.35;;;4.10;99.90;;;;;;5094247;28;20044;-48
2023/10/15 05:57:27;;;;;;;5.53;2.40;;;4.10;99.90;;;;;;5094605;28;20040;-52
2023/10/15 05:59:54;;;;;;;6.40;2.30;;;4.10;99.90;;;;;;5094028;28;20046;-47
2023/10/15 06:02:21;;;;;;;7.07;2.20;;;4.20;99.90;;;;;;5094526;28;20075;-50
2023/10/15 06:04:48;;;;;;;6.18;2.00;;;4.20;99.90;;;;;;5094613;28;20115;-53
2023/10/15 06:07:15;;;;;;;4.85;1.98;;;4.20;99.90;;;;;;5094211;28;20050;-48
2023/10/15 06:09:44;;;;;;;6.50;2.17;;;4.20;99.90;;;;;;5093251;28;20044;-57
2023/10/15 06:12:13;;;;;;;3.72;2.00;;;4.20;99.90;;;;;;5093763;28;20046;-50
2023/10/15 06:14:40;;;;;;;6.57;2.00;;;4.20;99.90;;;;;;5094080;28;20127;-55
2023/10/15 06:17:07;;;;;;;4.95;2.05;;;4.20;99.90;;;;;;5093791;28;20040;-52
2023/10/15 06:19:34;;;;;;;4.85;1.90;;;4.10;99.90;;;;;;5092920;28;20050;-55
2023/10/15 06:22:01;;;;;;;5.25;1.90;;;4.10;99.90;;;;;;5093869;28;20479;-55
2023/10/15 06:24:28;;;;;;;4.07;2.00;;;4.10;99.90;;;;;;5093693;28;20491;-53
2023/10/15 06:26:55;;;;;;;4.40;1.73;;;4.10;99.90;;;;;;5094055;28;20043;-57
2023/10/15 06:29:22;;;;;;;5.97;2.15;;;4.10;99.90;;;;;;5093545;28;20101;-52
2023/10/15 06:31:48;;;;;;;4.13;1.98;;;4.00;99.90;;;;;;5093828;28;20047;-53
2023/10/15 06:34:15;;;;;;;3.85;1.88;;;4.10;99.90;;;;;;5093922;28;20047;-54
2023/10/15 06:36:42;;;;;;;2.70;1.38;;;4.10;99.90;;;;;;5094049;28;20075;-55
2023/10/15 06:39:09;;;;;;;6.25;2.58;;;4.10;99.90;;;;;;5093001;28;20086;-51
2023/10/15 06:41:39;;;;;;;4.88;2.08;;;4.10;99.90;;;;;;5093623;28;20113;-53
2023/10/15 06:44:08;;;;;;;6.70;2.45;;;4.10;99.90;;;;;;5092583;28;20436;-54
2023/10/15 06:46:35;;;;;;;4.22;3.03;;;4.10;99.90;;;;;;5093655;28;20066;-50
2023/10/15 06:49:02;;;;;;;3.42;1.80;;;4.10;99.90;;;;;;5093785;28;20047;-54
2023/10/15 06:51:29;;;;;;;5.38;2.47;;;4.00;99.90;;;;;;5093133;28;20048;-54
2023/10/15 06:53:55;;;;;;;5.85;2.15;;;4.00;99.90;;;;;;5091929;28;20437;-49
2023/10/15 06:56:22;;;;;;;5.68;2.50;;;4.00;99.90;;;;;;5093902;28;20493;-50
2023/10/15 06:58:49;;;;;;;3.92;2.22;;;4.10;99.90;;;;;;5093202;28;20043;-53
2023/10/15 07:01:16;;;;;;;5.32;2.70;;;4.10;99.90;;;;;;5093177;28;20403;-53
2023/10/15 07:03:43;;;;;;;5.85;2.22;;;4.10;99.90;;;;;;5093354;28;20426;-53
2023/10/15 07:06:09;;;;;;;5.13;2.25;;;4.10;99.90;;;;;;5093578;28;20047;-56
2023/10/15 07:08:36;;;;;;;7.70;2.45;;;4.10;99.90;;;;;;5093169;28;20040;-55
2023/10/15 07:11:05;;;;;;;5.35;2.50;;;4.20;99.90;;;;;;5093267;28;20460;-52
2023/10/15 07:13:32;;;;;;;4.53;2.30;;;4.20;99.90;;;;;;5093093;28;20115;-51
2023/10/15 07:16:00;;;;;;;4.80;2.45;;;4.20;99.90;;;;;;5093314;28;20101;-52
2023/10/15 07:18:27;;;;;;;5.50;2.40;;;4.20;99.90;;;;;;5093129;28;20089;-52
2023/10/15 07:20:54;;;;;;;3.45;1.90;;;4.30;99.90;;;;;;5092802;28;20032;-49
2023/10/15 07:23:21;;;;;;;5.57;1.90;;;4.30;99.90;;;;;;5093103;28;20040;-48
2023/10/15 07:25:47;;;;;;;5.05;1.90;;;4.40;99.90;;;;;;5093030;28;20040;-48
2023/10/15 07:28:15;;;;;;;8.98;1.90;;;4.40;99.90;;;;;;5092810;28;20036;-56
2023/10/15 07:30:42;;;;;;;7.75;2.17;;;4.50;99.90;;;;;;5093085;28;20399;-52
2023/10/15 07:33:10;;;;;;;6.32;1.77;;;4.60;99.90;;;;;;5093294;28;20048;-49
2023/10/15 07:35:37;;;;;;;3.70;1.90;;;4.60;99.90;;;;;;5092610;28;20039;-53
2023/10/15 07:38:04;;;;;;;5.65;2.20;;;4.60;99.90;;;;;;5092613;28;20051;-52
2023/10/15 07:40:32;;;;;;;4.97;2.20;;;4.70;99.90;;;;;;5093080;28;20504;-53
2023/10/15 07:43:00;;;;;;;6.75;1.90;;;4.80;99.90;;;;;;5093147;28;20036;-59
2023/10/15 07:45:27;;;;;;;6.47;2.20;;;4.80;99.90;;;;;;5091287;28;20040;-50
2023/10/15 07:47:54;;;;;;;6.60;2.20;;;4.90;99.90;;;;;;5092676;28;20040;-54
2023/10/15 07:50:23;;;;;;;5.18;1.88;;;4.90;99.90;;;;;;5093451;28;20089;-54
2023/10/15 07:52:50;;;;;;;3.80;2.20;;;4.90;99.90;;;;;;5096641;28;20071;-47
2023/10/15 07:55:17;;;;;;;4.70;2.10;;;5.00;99.90;;;;;;5096260;28;20062;-53
2023/10/15 07:57:44;;;;;;;5.90;2.15;;;5.00;99.90;;;;;;5096476;28;20078;-53
2023/10/15 08:00:22;;;;;;;5.25;2.17;;;5.00;99.90;;;;;;5095615;28;20036;-47
2023/10/15 08:02:52;;;;;;;5.93;2.17;;;5.10;99.90;;;;;;5096364;28;20040;-46
2023/10/15 08:05:20;;;;;;;5.75;2.40;;;5.10;99.90;;;;;;5096306;28;20040;-52
2023/10/15 08:07:50;;;;;;;5.93;2.03;;;5.20;99.90;;;;;;5096440;28;20126;-47
2023/10/15 08:10:21;;;;;;;6.10;2.40;;;5.30;99.90;;;;;;5096465;28;20528;-51
2023/10/15 08:12:48;;;;;;;6.72;2.20;;;5.30;99.90;;;;;;5096598;28;20481;-56
2023/10/15 08:15:15;;;;;;;7.35;2.50;;;5.40;99.90;;;;;;5096680;28;20491;-53
2023/10/15 08:17:42;;;;;;;6.38;2.60;;;5.40;99.90;;;;;;5094573;28;20083;-54
2023/10/15 08:20:09;;;;;;;5.70;2.22;;;5.50;99.90;;;;;;5096110;28;20040;-51
2023/10/15 08:22:36;;;;;;;7.43;2.35;;;5.50;99.90;;;;;;5096384;28;20044;-47
2023/10/15 08:25:03;;;;;;;6.57;1.98;;;5.60;99.90;;;;;;5096489;28;20032;-48
2023/10/15 08:27:30;;;;;;;4.13;1.83;;;5.70;99.90;;;;;;5095705;28;20055;-52
2023/10/15 08:29:57;;;;;;;5.88;2.13;;;5.70;99.90;;;;;;5096250;28;20047;-46
2023/10/15 08:32:26;;;;;;;7.70;2.15;;;5.80;99.90;;;;;;5096100;28;20040;-50
2023/10/15 08:34:53;;;;;;;8.60;2.60;;;5.80;99.90;;;;;;5095901;28;20066;-46
2023/10/15 08:37:20;;;;;;;5.30;2.10;;;5.90;99.90;;;;;;5094217;28;20048;-47
2023/10/15 08:39:47;;;;;;;5.10;2.38;;;5.90;99.90;;;;;;5095684;28;20040;-53
2023/10/15 08:42:14;;;;;;;6.95;2.30;;;6.00;99.90;;;;;;5095319;28;20047;-50
2023/10/15 08:44:41;;;;;;;6.32;2.15;;;6.00;99.90;;;;;;5095972;28;20105;-55
2023/10/15 08:47:08;;;;;;;6.93;2.20;;;6.10;99.90;;;;;;5095547;28;20040;-55
2023/10/15 08:49:36;;;;;;;9.65;2.55;;;6.10;99.90;;;;;;5095738;28;20119;-51
2023/10/15 08:52:03;;;;;;;7.03;2.35;;;6.20;99.90;;;;;;5095498;28;20122;-52
2023/10/15 08:54:29;;;;;;;6.65;2.42;;;6.20;99.90;;;;;;5095550;28;20043;-52
2023/10/15 08:56:56;;;;;;;8.57;2.83;;;6.30;99.90;;;;;;5095361;28;20044;-51
2023/10/15 08:59:23;;;;;;;7.70;2.63;;;6.30;99.90;;;;;;5095667;28;20048;-56
2023/10/15 09:01:50;;;;;;;8.55;2.22;;;6.40;99.90;;;;;;5094802;28;20087;-52
2023/10/15 09:04:16;;;;;;;12.55;2.10;;;6.50;99.90;;;;;;5095710;28;20039;-53
2023/10/15 09:06:47;;;;;;;7.70;2.50;;;6.60;99.90;;;;;;5095193;28;20115;-54
2023/10/15 09:09:14;;;;;;;6.80;2.03;;;6.70;99.90;;;;;;5095115;28;20044;-50
2023/10/15 09:11:42;;;;;;;8.80;2.45;;;6.80;99.90;;;;;;5095049;28;20036;-52
2023/10/15 09:14:13;;;;;;;7.18;2.35;;;6.90;99.90;;;;;;5095456;28;20040;-49
2023/10/15 09:16:40;;;;;;;6.30;2.30;;;7.00;99.90;;;;;;5095575;28;20036;-55
2023/10/15 09:19:07;;;;;;;7.25;2.42;;;7.10;99.90;;;;;;5095339;28;20039;-48
2023/10/15 09:21:36;;;;;;;6.65;2.40;;;7.10;99.90;;;;;;5095060;28;20089;-52
2023/10/15 09:24:03;;;;;;;7.95;2.15;;;7.20;99.90;;;;;;5093985;28;20118;-48
2023/10/15 09:26:31;;;;;;;5.72;2.42;;;7.20;99.90;;;;;;5095577;28;20134;-52
2023/10/15 09:28:58;;;;;;;4.30;1.88;;;7.20;99.90;;;;;;5094749;28;20032;-51
2023/10/15 09:31:25;;;;;;;7.15;2.67;;;7.30;99.90;;;;;;5094585;28;20055;-50
2023/10/15 09:33:52;;;;;;;7.55;2.13;;;7.40;99.90;;;;;;5094884;28;20048;-53
2023/10/15 09:36:19;;;;;;;8.20;2.63;;;7.40;99.90;;;;;;5095313;28;20044;-51
2023/10/15 09:38:47;;;;;;;6.38;2.30;;;7.40;99.90;;;;;;5095215;28;20044;-50
2023/10/15 09:41:15;;;;;;;6.03;2.20;;;7.40;99.90;;;;;;5094680;28;20071;-48
2023/10/15 09:43:43;;;;;;;6.55;2.42;;;7.50;99.90;;;;;;5094693;28;20040;-48
2023/10/15 09:46:12;;;;;;;10.20;2.50;;;7.60;99.90;;;;;;5094442;28;20078;-53
2023/10/15 09:48:39;;;;;;;9.00;2.08;;;7.60;99.90;;;;;;5093201;28;20058;-47
2023/10/15 09:51:07;;;;;;;7.88;1.90;;;7.60;99.90;;;;;;5094222;28;20048;-46
2023/10/15 09:53:35;;;;;;;4.55;1.55;;;7.60;99.90;;;;;;5094340;28;20050;-51
2023/10/15 09:56:07;;;;;;;8.63;1.70;;;7.60;99.90;;;;;;5094163;28;20475;-56
2023/10/15 09:58:34;;;;;;;4.65;1.05;;;7.60;99.90;;;;;;5094204;28;20462;-52
2023/10/15 10:01:08;;;;;;;7.78;1.73;;;7.50;99.90;;;;;;5094341;28;20028;-53
2023/10/15 10:03:37;;;;;;;9.65;1.52;;;7.60;99.90;;;;;;5094350;28;20074;-55
2023/10/15 10:06:09;;;;;;;6.75;1.50;;;7.70;99.90;;;;;;5094363;28;20495;-50
2023/10/15 10:08:36;;;;;;;5.10;1.52;;;7.70;99.90;;;;;;5093973;28;20044;-55
2023/10/15 10:11:03;;;;;;;7.13;1.70;;;7.80;99.90;;;;;;5094346;28;20054;-54
2023/10/15 10:13:30;;;;;;;5.32;1.60;;;7.80;99.90;;;;;;5093450;28;20076;-56
2023/10/15 10:15:57;;;;;;;6.93;1.77;;;8.00;99.90;;;;;;5094372;28;20094;-54
2023/10/15 10:18:24;;;;;;;4.72;1.45;;;8.00;99.90;;;;;;5093965;28;20047;-53
2023/10/15 10:20:52;;;;;;;5.28;1.35;;;7.90;99.90;;;;;;5093881;28;20047;-49
2023/10/15 10:23:19;;;;;;;8.13;1.80;;;7.90;99.90;;;;;;5092385;28;20042;-55
2023/10/15 10:25:46;;;;;;;6.20;1.45;;;8.00;99.90;;;;;;5093948;28;20044;-50
2023/10/15 10:28:16;;;;;;;7.15;1.75;;;8.00;99.90;;;;;;5093951;28;20036;-54
2023/10/15 10:30:44;;;;;;;7.53;1.67;;;8.10;99.90;;;;;;5094120;28;20052;-56
2023/10/15 10:33:11;;;;;;;5.78;1.55;;;8.10;99.90;;;;;;5092560;28;20036;-53
2023/10/15 10:35:38;;;;;;;6.78;1.67;;;8.20;99.90;;;;;;5093773;28;20067;-52
2023/10/15 10:38:05;;;;;;;4.30;1.40;;;8.20;99.90;;;;;;5093747;28;20044;-58
2023/10/15 10:40:33;;;;;;;7.80;1.50;;;8.20;99.90;;;;;;5093855;28;20043;-54
2023/10/15 10:42:59;;;;;;;5.78;1.52;;;8.20;99.90;;;;;;5093930;28;20112;-52
2023/10/15 10:45:26;;;;;;;9.05;1.30;;;8.20;99.90;;;;;;5093537;28;20075;-53
2023/10/15 10:47:55;;;;;;;8.77;1.70;;;8.20;99.90;;;;;;5093235;28;20117;-57
2023/10/15 10:50:22;;;;;;;9.18;1.80;;;8.30;99.90;;;;;;5091791;28;20063;-54
2023/10/15 10:52:49;;;;;;;5.95;1.70;;;8.30;99.90;;;;;;5093517;28;20039;-54
2023/10/15 10:55:15;;;;;;;6.07;1.50;;;8.40;99.90;;;;;;5093257;28;20072;-51
2023/10/15 10:57:42;;;;;;;6.53;1.50;;;8.50;99.90;;;;;;5093746;28;20044;-52
2023/10/15 11:00:12;;;;;;;7.85;1.60;;;8.50;99.90;;;;;;5093069;28;20076;-49
2023/10/15 11:02:39;;;;;;;7.30;1.60;;;8.50;99.90;;;;;;5093667;28;20471;-55
2023/10/15 11:05:11;;;;;;;7.20;1.50;;;8.60;99.90;;;;;;5091990;28;20044;-52
2023/10/15 11:07:40;;;;;;;5.47;1.50;;;8.60;99.90;;;;;;5093223;28;20044;-47
2023/10/15 11:10:09;;;;;;;5.20;1.40;;;8.60;99.90;;;;;;5092883;28;20124;-52
2023/10/15 11:12:36;;;;;;;6.20;1.50;;;8.60;99.50;;;;;;5093314;28;20443;-52
2023/10/15 11:15:07;;;;;;;8.50;1.42;;;8.60;99.30;;;;;;5094242;28;20032;-56
2023/10/15 11:17:34;;;;;;;4.03;1.20;;;8.60;99.70;;;;;;5092967;28;20048;-50
2023/10/15 11:20:01;;;;;;;4.88;1.48;;;8.70;99.50;;;;;;5093127;28;20044;-53
2023/10/15 11:22:28;;;;;;;3.75;0.93;;;8.80;99.10;;;;;;5093558;28;20040;-52
2023/10/15 11:24:55;;;;;;;6.47;1.60;;;8.80;99.40;;;;;;5095648;28;20036;-50
2023/10/15 11:27:22;;;;;;;6.55;1.35;;;8.90;98.10;;;;;;5097283;28;20126;-58
2023/10/15 11:29:49;;;;;;;4.85;1.38;;;8.90;97.90;;;;;;5097446;28;20040;-56
2023/10/15 11:32:15;;;;;;;6.45;1.27;;;8.90;98.50;;;;;;5096172;28;20040;-55
2023/10/15 11:34:42;;;;;;;3.67;1.13;;;8.90;97.20;;;;;;5097139;28;20059;-57
2023/10/15 11:37:10;;;;;;;6.25;1.38;;;8.90;97.90;;;;;;5097650;28;20416;-54
2023/10/15 11:42:04;;;;;;;5.45;1.35;;;9.00;97.10;;;;;;5097203;28;20151;-53
2023/10/15 11:44:31;;;;;;;4.05;1.52;;;9.10;97.60;;;;;;5097308;28;20043;-50
2023/10/15 11:47:00;;;;;;;4.72;1.27;;;9.10;96.80;;;;;;5097474;28;20040;-49
2023/10/15 11:49:27;;;;;;;3.85;0.93;;;9.10;96.80;;;;;;5097049;28;20090;-57
2023/10/15 11:51:57;;;;;;;4.20;1.17;;;9.00;96.30;;;;;;5097071;28;20066;-53
2023/10/15 11:54:25;;;;;;;3.88;0.98;;;9.00;96.40;;;;;;5096921;28;20361;-54
2023/10/15 11:56:54;;;;;;;3.42;0.98;;;9.00;95.20;;;;;;5096734;28;20044;-52
2023/10/15 11:59:24;;;;;;;4.97;1.20;;;9.10;96.20;;;;;;5096861;28;20063;-52
2023/10/15 12:01:52;;;;;;;6.00;1.10;;;9.10;95.60;;;;;;5097198;28;20127;-52
2023/10/15 12:04:19;;;;;;;3.92;1.23;;;9.10;96.10;;;;;;5096947;28;20482;-56
2023/10/15 12:06:46;;;;;;;4.95;1.48;;;9.10;94.80;;;;;;5097013;28;20036;-53
2023/10/15 12:09:16;;;;;;;4.82;1.27;;;9.10;94.50;;;;;;5096687;28;20435;-55
2023/10/15 12:11:44;;;;;;;4.10;1.35;;;9.10;95.00;;;;;;5096568;28;20044;-53
2023/10/15 12:14:11;;;;;;;5.82;1.15;;;9.20;95.80;;;;;;5096734;28;20046;-54
2023/10/15 12:16:41;;;;;;;4.78;1.20;;;9.20;95.40;;;;;;5096633;28;20044;-55
2023/10/15 12:19:08;;;;;;;4.18;1.20;;;9.20;95.20;;;;;;5096477;28;20097;-54
2023/10/15 12:21:36;;;;;;;5.43;1.40;;;9.20;95.10;;;;;;5096534;28;20036;-54
2023/10/15 12:24:03;;;;;;;8.75;1.73;;;9.20;95.10;;;;;;5096416;28;20399;-52
2023/10/15 12:26:29;;;;;;;3.90;1.15;;;9.10;94.40;;;;;;5096107;28;20032;-53
2023/10/15 12:28:56;;;;;;;3.83;1.23;;;9.20;94.10;;;;;;5096109;28;20156;-53
2023/10/15 12:31:23;;;;;;;6.65;1.25;;;9.20;94.80;;;;;;5096752;28;20043;-51
2023/10/15 12:33:50;;;;;;;5.43;1.65;;;9.20;94.80;;;;;;5096311;28;20105;-52
2023/10/15 12:36:17;;;;;;;6.72;1.20;;;9.30;94.60;;;;;;5095622;28;20047;-52
2023/10/15 12:38:43;;;;;;;5.15;1.13;;;9.30;94.60;;;;;;5095684;28;20046;-49
2023/10/15 12:41:10;;;;;;;3.80;1.10;;;9.30;94.60;;;;;;5095998;28;20043;-56
2023/10/15 12:43:37;;;;;;;4.97;1.30;;;9.30;94.20;;;;;;5095970;28;20043;-54
2023/10/15 12:46:05;;;;;;;6.07;2.13;;;9.30;94.30;;;;;;5095564;28;20032;-56
2023/10/15 12:48:32;;;;;;;4.90;1.60;;;9.40;94.40;;;;;;5094160;28;20048;-57
2023/10/15 12:50:59;;;;;;;2.60;0.68;;;9.40;93.90;;;;;;5094102;28;20081;-48
2023/10/15 12:53:26;;;;;;;4.25;0.90;;;9.50;94.20;;;;;;5094253;28;20055;-55
2023/10/15 12:55:53;;;;;;;4.38;1.33;;;9.50;94.10;;;;;;5095385;28;20093;-52
2023/10/15 12:58:19;;;;;;;4.80;1.20;;;9.50;94.20;;;;;;5095087;28;20131;-49
2023/10/15 13:00:49;;;;;;;4.85;1.17;;;9.50;93.90;;;;;;5095013;28;20036;-53
2023/10/15 13:03:17;;;;;;;2.47;1.05;;;9.50;93.20;;;;;;5095200;28;20033;-51
2023/10/15 13:05:44;;;;;;;4.13;1.17;;;9.50;93.30;;;;;;5095127;28;20464;-52
2023/10/15 13:08:11;;;;;;;4.13;1.10;;;9.50;93.90;;;;;;5095179;28;20041;-54
2023/10/15 13:10:38;;;;;;;3.65;1.10;;;9.60;93.90;;;;;;5077111;28;20072;-55
2023/10/15 13:13:06;;;;;;;3.22;1.00;;;9.50;93.10;;;;;;5095260;28;20123;-49
2023/10/15 13:15:33;;;;;;;4.60;1.10;;;9.50;93.10;;;;;;5094970;28;20036;-52
2023/10/15 13:18:00;;;;;;;4.80;1.10;;;9.50;93.50;;;;;;5094982;28;20451;-48
2023/10/15 13:20:27;;;;;;;4.75;1.15;;;9.50;93.00;;;;;;5094374;28;20506;-56